createdAt,value
2016-10-08T00:00:17.929Z,954.34
2016-10-08T00:01:17.948Z,954.34
2016-10-08T00:02:17.969Z,954.35
2016-10-08T00:03:18.041Z,954.35
2016-10-08T00:04:18.009Z,954.35
2016-10-08T00:05:18.029Z,954.3
2016-10-08T00:06:18.050Z,954.24
2016-10-08T00:07:18.070Z,954.2
2016-10-08T00:08:18.090Z,954.22
2016-10-08T00:09:18.131Z,954.19
2016-10-08T00:10:18.131Z,954.18
2016-10-08T00:11:18.151Z,954.14
2016-10-08T00:12:18.171Z,954.17
2016-10-08T00:13:18.218Z,954.15
2016-10-08T00:14:18.300Z,954.15
2016-10-08T00:15:18.239Z,954.15
2016-10-08T00:16:18.253Z,954.16
2016-10-08T00:17:18.287Z,954.2
2016-10-08T00:18:18.294Z,954.22
2016-10-08T00:19:18.315Z,954.25
2016-10-08T00:20:18.335Z,954.25
2016-10-08T00:21:18.355Z,954.25
2016-10-08T00:22:18.376Z,954.28
2016-10-08T00:23:18.396Z,954.25
2016-10-08T00:24:18.417Z,954.26
2016-10-08T00:25:18.437Z,954.21
2016-10-08T00:26:18.543Z,954.25
2016-10-08T00:27:18.478Z,954.2
2016-10-08T00:28:18.498Z,954.22
2016-10-08T00:29:18.518Z,954.23
2016-10-08T00:30:18.539Z,954.2
2016-10-08T00:31:18.559Z,954.24
2016-10-08T00:32:18.579Z,954.24
2016-10-08T00:33:18.600Z,954.25
2016-10-08T00:34:18.619Z,954.28
2016-10-08T00:35:18.640Z,954.28
2016-10-08T00:36:18.660Z,954.29
2016-10-08T00:37:18.680Z,954.29
2016-10-08T00:38:18.736Z,954.26
2016-10-08T00:39:18.721Z,954.27
2016-10-08T00:40:18.742Z,954.27
2016-10-08T00:41:18.762Z,954.3
2016-10-08T00:42:18.782Z,954.23
2016-10-08T00:43:18.802Z,954.24
2016-10-08T00:44:18.823Z,954.23
2016-10-08T00:45:18.843Z,954.23
2016-10-08T00:46:18.869Z,954.2
2016-10-08T00:47:18.883Z,954.21
2016-10-08T00:48:18.903Z,954.19
2016-10-08T00:49:18.923Z,954.17
2016-10-08T00:50:19.032Z,954.1
2016-10-08T00:51:18.963Z,954.06
2016-10-08T00:52:18.985Z,954.06
2016-10-08T00:53:19.004Z,954.02
2016-10-08T00:54:19.025Z,954
2016-10-08T00:55:19.063Z,953.99
2016-10-08T00:56:19.065Z,954.01
2016-10-08T00:57:19.086Z,954.03
2016-10-08T00:58:19.106Z,953.99
2016-10-08T00:59:19.126Z,954.05
2016-10-08T01:00:19.146Z,954.03
2016-10-08T01:01:19.167Z,954.06
2016-10-08T01:02:19.189Z,954.08
2016-10-08T01:03:19.208Z,954.11
2016-10-08T01:04:19.228Z,954.13
2016-10-08T01:05:19.249Z,954.11
2016-10-08T01:06:19.269Z,954.12
2016-10-08T01:07:19.289Z,954.08
2016-10-08T01:08:19.309Z,954.06
2016-10-08T01:09:19.330Z,954.03
2016-10-08T01:10:19.358Z,954.04
2016-10-08T01:11:19.371Z,954
2016-10-08T01:12:19.390Z,953.98
2016-10-08T01:13:19.412Z,954.01
2016-10-08T01:14:19.431Z,953.99
2016-10-08T01:15:19.452Z,954.02
2016-10-08T01:16:19.472Z,954.04
2016-10-08T01:17:19.493Z,954
2016-10-08T01:18:19.513Z,954.04
2016-10-08T01:19:19.532Z,954.04
2016-10-08T01:20:19.553Z,954.01
2016-10-08T01:21:19.574Z,954.01
2016-10-08T01:22:19.594Z,954.01
2016-10-08T01:23:19.613Z,953.97
2016-10-08T01:24:19.634Z,953.96
2016-10-08T01:25:19.652Z,953.93
2016-10-08T01:26:19.674Z,953.92
2016-10-08T01:27:19.694Z,953.84
2016-10-08T01:28:19.715Z,953.8
2016-10-08T01:29:19.735Z,953.79
2016-10-08T01:30:19.755Z,953.77
2016-10-08T01:31:19.775Z,953.74
2016-10-08T01:32:19.796Z,953.72
2016-10-08T01:33:19.815Z,953.7
2016-10-08T01:34:19.836Z,953.69
2016-10-08T01:35:19.855Z,953.7
2016-10-08T01:36:19.876Z,953.73
2016-10-08T01:37:19.896Z,953.71
2016-10-08T01:38:19.916Z,953.73
2016-10-08T01:39:19.937Z,953.72
2016-10-08T01:40:19.965Z,953.75
2016-10-08T01:41:19.977Z,953.74
2016-10-08T01:42:19.997Z,953.75
2016-10-08T01:43:20.017Z,953.78
2016-10-08T01:44:20.037Z,953.74
2016-10-08T01:45:20.057Z,953.76
2016-10-08T01:46:20.078Z,953.8
2016-10-08T01:47:20.097Z,953.81
2016-10-08T01:48:20.121Z,953.83
2016-10-08T01:49:20.137Z,953.77
2016-10-08T01:50:20.158Z,953.77
2016-10-08T01:51:20.177Z,953.72
2016-10-08T01:52:20.197Z,953.75
2016-10-08T01:53:20.217Z,953.73
2016-10-08T01:54:20.237Z,953.77
2016-10-08T01:55:20.260Z,953.73
2016-10-08T01:56:20.276Z,953.73
2016-10-08T01:57:20.297Z,953.74
2016-10-08T01:58:20.317Z,953.72
2016-10-08T01:59:20.337Z,953.74
2016-10-08T02:00:20.357Z,953.69
2016-10-08T02:01:20.378Z,953.73
2016-10-08T02:02:20.396Z,953.73
2016-10-08T02:03:20.416Z,953.73
2016-10-08T02:04:20.437Z,953.75
2016-10-08T02:05:20.457Z,953.7
2016-10-08T02:06:20.476Z,953.74
2016-10-08T02:07:20.497Z,953.69
2016-10-08T02:08:20.516Z,953.67
2016-10-08T02:09:20.535Z,953.67
2016-10-08T02:10:20.557Z,953.68
2016-10-08T02:11:20.577Z,953.66
2016-10-08T02:12:20.597Z,953.65
2016-10-08T02:13:20.616Z,953.66
2016-10-08T02:14:20.637Z,953.68
2016-10-08T02:15:20.657Z,953.65
2016-10-08T02:16:20.676Z,953.57
2016-10-08T02:17:20.696Z,953.61
2016-10-08T02:18:20.716Z,953.59
2016-10-08T02:19:20.737Z,953.58
2016-10-08T02:20:20.756Z,953.58
2016-10-08T02:21:20.777Z,953.6
2016-10-08T02:22:20.797Z,953.58
2016-10-08T02:23:20.817Z,953.58
2016-10-08T02:24:20.836Z,953.6
2016-10-08T02:25:20.857Z,953.55
2016-10-08T02:26:20.900Z,953.56
2016-10-08T02:27:20.897Z,953.54
2016-10-08T02:28:20.917Z,953.56
2016-10-08T02:29:20.937Z,953.53
2016-10-08T02:30:20.956Z,953.5
2016-10-08T02:31:20.977Z,953.56
2016-10-08T02:32:20.996Z,953.5
2016-10-08T02:33:21.022Z,953.52
2016-10-08T02:34:21.036Z,953.54
2016-10-08T02:35:21.056Z,953.51
2016-10-08T02:36:21.076Z,953.5
2016-10-08T02:37:21.096Z,953.5
2016-10-08T02:38:21.117Z,953.47
2016-10-08T02:39:21.136Z,953.47
2016-10-08T02:40:21.157Z,953.49
2016-10-08T02:41:21.180Z,953.52
2016-10-08T02:42:21.198Z,953.56
2016-10-08T02:43:21.217Z,953.52
2016-10-08T02:44:21.236Z,953.53
2016-10-08T02:45:21.259Z,953.51
2016-10-08T02:46:21.276Z,953.5
2016-10-08T02:47:21.297Z,953.5
2016-10-08T02:48:21.318Z,953.51
2016-10-08T02:49:21.336Z,953.47
2016-10-08T02:50:21.357Z,953.46
2016-10-08T02:51:21.378Z,953.46
2016-10-08T02:52:21.397Z,953.51
2016-10-08T02:53:21.417Z,953.47
2016-10-08T02:54:21.436Z,953.49
2016-10-08T02:55:21.457Z,953.5
2016-10-08T02:56:21.478Z,953.51
2016-10-08T02:57:21.495Z,953.51
2016-10-08T02:58:21.516Z,953.48
2016-10-08T02:59:21.536Z,953.45
2016-10-08T03:00:21.554Z,953.47
2016-10-08T03:01:21.575Z,953.47
2016-10-08T03:02:21.594Z,953.41
2016-10-08T03:03:21.615Z,953.45
2016-10-08T03:04:21.634Z,953.41
2016-10-08T03:05:21.654Z,953.4
2016-10-08T03:06:21.673Z,953.42
2016-10-08T03:07:21.694Z,953.41
2016-10-08T03:08:21.713Z,953.43
2016-10-08T03:09:21.732Z,953.37
2016-10-08T03:10:21.753Z,953.41
2016-10-08T03:11:21.882Z,953.42
2016-10-08T03:12:21.792Z,953.38
2016-10-08T03:13:21.811Z,953.42
2016-10-08T03:14:21.833Z,953.42
2016-10-08T03:15:21.852Z,953.46
2016-10-08T03:16:21.871Z,953.45
2016-10-08T03:17:21.892Z,953.45
2016-10-08T03:18:21.912Z,953.45
2016-10-08T03:19:21.953Z,953.45
2016-10-08T03:20:21.951Z,953.43
2016-10-08T03:21:21.970Z,953.46
2016-10-08T03:22:21.991Z,953.45
2016-10-08T03:23:22.010Z,953.45
2016-10-08T03:24:22.030Z,953.45
2016-10-08T03:25:22.050Z,953.5
2016-10-08T03:26:22.077Z,953.49
2016-10-08T03:27:22.091Z,953.48
2016-10-08T03:28:22.111Z,953.51
2016-10-08T03:29:22.130Z,953.49
2016-10-08T03:30:22.149Z,953.49
2016-10-08T03:31:22.169Z,953.44
2016-10-08T03:32:22.189Z,953.49
2016-10-08T03:33:22.208Z,953.48
2016-10-08T03:34:22.233Z,953.5
2016-10-08T03:35:22.247Z,953.5
2016-10-08T03:36:22.268Z,953.5
2016-10-08T03:37:22.287Z,953.45
2016-10-08T03:38:22.307Z,953.46
2016-10-08T03:39:22.327Z,953.49
2016-10-08T03:40:22.347Z,953.53
2016-10-08T03:41:22.370Z,953.52
2016-10-08T03:42:22.386Z,953.49
2016-10-08T03:43:22.406Z,953.5
2016-10-08T03:44:22.426Z,953.52
2016-10-08T03:45:22.446Z,953.46
2016-10-08T03:46:22.464Z,953.44
2016-10-08T03:47:22.486Z,953.49
2016-10-08T03:48:22.505Z,953.49
2016-10-08T03:49:22.526Z,953.5
2016-10-08T03:50:22.545Z,953.51
2016-10-08T03:51:22.564Z,953.48
2016-10-08T03:52:22.583Z,953.52
2016-10-08T03:53:22.603Z,953.54
2016-10-08T03:54:22.623Z,953.55
2016-10-08T03:55:22.644Z,953.53
2016-10-08T03:56:22.663Z,953.54
2016-10-08T03:57:22.685Z,953.51
2016-10-08T03:58:22.715Z,953.54
2016-10-08T03:59:22.722Z,953.57
2016-10-08T04:00:22.741Z,953.55
2016-10-08T04:01:22.760Z,953.59
2016-10-08T04:02:22.781Z,953.59
2016-10-08T04:03:22.800Z,953.55
2016-10-08T04:04:22.820Z,953.56
2016-10-08T04:05:22.840Z,953.6
2016-10-08T04:06:22.870Z,953.6
2016-10-08T04:07:22.879Z,953.59
2016-10-08T04:08:22.899Z,953.59
2016-10-08T04:09:22.919Z,953.61
2016-10-08T04:10:22.938Z,953.63
2016-10-08T04:11:22.958Z,953.64
2016-10-08T04:12:22.979Z,953.61
2016-10-08T04:13:22.998Z,953.61
2016-10-08T04:14:23.018Z,953.58
2016-10-08T04:15:23.043Z,953.65
2016-10-08T04:16:23.058Z,953.61
2016-10-08T04:17:23.077Z,953.61
2016-10-08T04:18:23.096Z,953.58
2016-10-08T04:19:23.130Z,953.6
2016-10-08T04:20:23.136Z,953.56
2016-10-08T04:21:23.156Z,953.61
2016-10-08T04:22:23.175Z,953.58
2016-10-08T04:23:23.195Z,953.61
2016-10-08T04:24:23.214Z,953.6
2016-10-08T04:25:23.234Z,953.64
2016-10-08T04:26:23.256Z,953.64
2016-10-08T04:27:23.286Z,953.65
2016-10-08T04:28:23.293Z,953.65
2016-10-08T04:29:23.314Z,953.65
2016-10-08T04:30:23.332Z,953.66
2016-10-08T04:31:23.354Z,953.68
2016-10-08T04:32:23.370Z,953.67
2016-10-08T04:33:23.392Z,953.67
2016-10-08T04:34:23.412Z,953.6
2016-10-08T04:35:23.431Z,953.65
2016-10-08T04:36:23.452Z,953.65
2016-10-08T04:37:23.469Z,953.66
2016-10-08T04:38:23.491Z,953.66
2016-10-08T04:39:23.509Z,953.65
2016-10-08T04:40:23.529Z,953.68
2016-10-08T04:41:23.550Z,953.67
2016-10-08T04:42:23.571Z,953.72
2016-10-08T04:43:23.589Z,953.69
2016-10-08T04:44:23.609Z,953.72
2016-10-08T04:45:23.629Z,953.72
2016-10-08T04:46:23.648Z,953.76
2016-10-08T04:47:23.668Z,953.77
2016-10-08T04:48:23.688Z,953.76
2016-10-08T04:49:23.710Z,953.8
2016-10-08T04:50:23.728Z,953.77
2016-10-08T04:51:23.747Z,953.77
2016-10-08T04:52:23.768Z,953.77
2016-10-08T04:53:23.789Z,953.76
2016-10-08T04:54:23.806Z,953.75
2016-10-08T04:55:23.826Z,953.76
2016-10-08T04:56:23.847Z,953.72
2016-10-08T04:57:23.868Z,953.74
2016-10-08T04:58:23.886Z,953.78
2016-10-08T04:59:23.907Z,953.75
2016-10-08T05:00:23.926Z,953.81
2016-10-08T05:01:23.945Z,953.81
2016-10-08T05:02:23.964Z,953.8
2016-10-08T05:03:23.986Z,953.81
2016-10-08T05:04:24.004Z,953.79
2016-10-08T05:05:24.024Z,953.83
2016-10-08T05:06:24.044Z,953.85
2016-10-08T05:07:24.064Z,953.84
2016-10-08T05:08:24.084Z,953.81
2016-10-08T05:09:24.103Z,953.9
2016-10-08T05:10:24.123Z,953.86
2016-10-08T05:11:24.143Z,953.86
2016-10-08T05:12:24.162Z,953.89
2016-10-08T05:13:24.182Z,953.88
2016-10-08T05:14:24.202Z,953.89
2016-10-08T05:15:24.223Z,953.93
2016-10-08T05:16:24.240Z,953.95
2016-10-08T05:17:24.262Z,953.96
2016-10-08T05:18:24.282Z,953.99
2016-10-08T05:19:24.301Z,953.96
2016-10-08T05:20:24.322Z,954.03
2016-10-08T05:21:24.341Z,954.01
2016-10-08T05:22:24.361Z,954.05
2016-10-08T05:23:24.380Z,954.03
2016-10-08T05:24:24.401Z,954.06
2016-10-08T05:25:24.421Z,954.09
2016-10-08T05:26:24.441Z,954.05
2016-10-08T05:27:24.471Z,954.04
2016-10-08T05:28:24.480Z,954.07
2016-10-08T05:29:24.499Z,954.05
2016-10-08T05:30:24.518Z,954.12
2016-10-08T05:31:24.540Z,954.08
2016-10-08T05:32:24.560Z,954.07
2016-10-08T05:33:24.580Z,954.1
2016-10-08T05:34:24.599Z,954.12
2016-10-08T05:35:24.627Z,954.06
2016-10-08T05:36:24.639Z,954.06
2016-10-08T05:37:24.658Z,954.09
2016-10-08T05:38:24.679Z,954.09
2016-10-08T05:39:24.699Z,954.11
2016-10-08T05:40:24.719Z,954.09
2016-10-08T05:41:24.738Z,954.11
2016-10-08T05:42:24.757Z,954.07
2016-10-08T05:43:24.778Z,954.1
2016-10-08T05:44:24.798Z,954.11
2016-10-08T05:45:24.817Z,954.09
2016-10-08T05:46:24.836Z,954.11
2016-10-08T05:47:24.857Z,954.11
2016-10-08T05:48:24.876Z,954.11
2016-10-08T05:49:24.897Z,954.08
2016-10-08T05:50:24.917Z,954.11
2016-10-08T05:51:24.937Z,954.11
2016-10-08T05:52:24.956Z,954.11
2016-10-08T05:53:24.976Z,954.11
2016-10-08T05:54:24.996Z,954.12
2016-10-08T05:55:25.016Z,954.14
2016-10-08T05:56:25.034Z,954.11
2016-10-08T05:57:25.055Z,954.13
2016-10-08T05:58:25.074Z,954.18
2016-10-08T05:59:25.092Z,954.16
2016-10-08T06:00:25.113Z,954.18
2016-10-08T06:01:25.137Z,954.21
2016-10-08T06:02:25.153Z,954.2
2016-10-08T06:03:25.172Z,954.21
2016-10-08T06:04:25.192Z,954.2
2016-10-08T06:05:25.212Z,954.23
2016-10-08T06:06:25.231Z,954.29
2016-10-08T06:07:25.250Z,954.26
2016-10-08T06:08:25.268Z,954.24
2016-10-08T06:09:25.290Z,954.29
2016-10-08T06:10:25.309Z,954.29
2016-10-08T06:11:25.328Z,954.3
2016-10-08T06:12:25.348Z,954.25
2016-10-08T06:13:25.368Z,954.26
2016-10-08T06:14:25.387Z,954.29
2016-10-08T06:15:25.407Z,954.26
2016-10-08T06:16:25.427Z,954.27
2016-10-08T06:17:25.446Z,954.29
2016-10-08T06:18:25.466Z,954.26
2016-10-08T06:19:25.486Z,954.27
2016-10-08T06:20:25.506Z,954.34
2016-10-08T06:21:25.525Z,954.35
2016-10-08T06:22:25.544Z,954.3
2016-10-08T06:23:25.564Z,954.33
2016-10-08T06:24:25.585Z,954.32
2016-10-08T06:25:25.603Z,954.32
2016-10-08T06:26:25.624Z,954.32
2016-10-08T06:27:25.643Z,954.32
2016-10-08T06:28:25.663Z,954.35
2016-10-08T06:29:25.682Z,954.31
2016-10-08T06:30:25.701Z,954.31
2016-10-08T06:31:25.722Z,954.35
2016-10-08T06:32:25.740Z,954.31
2016-10-08T06:33:25.761Z,954.33
2016-10-08T06:34:25.782Z,954.31
2016-10-08T06:35:25.814Z,954.35
2016-10-08T06:36:25.818Z,954.38
2016-10-08T06:37:25.839Z,954.38
2016-10-08T06:38:25.860Z,954.36
2016-10-08T06:39:25.879Z,954.38
2016-10-08T06:40:25.897Z,954.38
2016-10-08T06:41:25.919Z,954.39
2016-10-08T06:42:25.938Z,954.38
2016-10-08T06:43:25.972Z,954.36
2016-10-08T06:44:25.976Z,954.36
2016-10-08T06:45:25.996Z,954.39
2016-10-08T06:46:26.016Z,954.39
2016-10-08T06:47:26.035Z,954.38
2016-10-08T06:48:26.055Z,954.42
2016-10-08T06:49:26.076Z,954.42
2016-10-08T06:50:26.095Z,954.4
2016-10-08T06:51:26.112Z,954.43
2016-10-08T06:52:26.133Z,954.42
2016-10-08T06:53:26.153Z,954.42
2016-10-08T06:54:26.172Z,954.45
2016-10-08T06:55:26.192Z,954.46
2016-10-08T06:56:26.212Z,954.42
2016-10-08T06:57:26.231Z,954.46
2016-10-08T06:58:26.251Z,954.47
2016-10-08T06:59:26.270Z,954.49
2016-10-08T07:00:26.288Z,954.48
2016-10-08T07:01:26.309Z,954.49
2016-10-08T07:02:26.328Z,954.48
2016-10-08T07:03:26.347Z,954.44
2016-10-08T07:04:26.368Z,954.47
2016-10-08T07:05:26.386Z,954.45
2016-10-08T07:06:26.406Z,954.45
2016-10-08T07:07:26.425Z,954.42
2016-10-08T07:08:26.446Z,954.45
2016-10-08T07:09:26.464Z,954.43
2016-10-08T07:10:26.484Z,954.47
2016-10-08T07:11:26.504Z,954.49
2016-10-08T07:12:26.523Z,954.52
2016-10-08T07:13:26.546Z,954.54
2016-10-08T07:14:26.564Z,954.55
2016-10-08T07:15:26.582Z,954.55
2016-10-08T07:16:26.600Z,954.58
2016-10-08T07:17:26.620Z,954.58
2016-10-08T07:18:26.640Z,954.57
2016-10-08T07:19:26.659Z,954.55
2016-10-08T07:20:26.678Z,954.62
2016-10-08T07:21:26.698Z,954.58
2016-10-08T07:22:26.717Z,954.6
2016-10-08T07:23:26.737Z,954.64
2016-10-08T07:24:26.757Z,954.61
2016-10-08T07:25:26.776Z,954.63
2016-10-08T07:26:26.795Z,954.67
2016-10-08T07:27:26.819Z,954.64
2016-10-08T07:28:26.835Z,954.62
2016-10-08T07:29:26.854Z,954.64
2016-10-08T07:30:26.874Z,954.63
2016-10-08T07:31:26.892Z,954.63
2016-10-08T07:32:26.912Z,954.68
2016-10-08T07:33:26.931Z,954.66
2016-10-08T07:34:26.951Z,954.68
2016-10-08T07:35:26.969Z,954.69
2016-10-08T07:36:26.989Z,954.7
2016-10-08T07:37:27.008Z,954.69
2016-10-08T07:38:27.028Z,954.71
2016-10-08T07:39:27.049Z,954.71
2016-10-08T07:40:27.068Z,954.72
2016-10-08T07:41:27.087Z,954.72
2016-10-08T07:42:27.107Z,954.72
2016-10-08T07:43:27.154Z,954.74
2016-10-08T07:44:27.146Z,954.71
2016-10-08T07:45:27.165Z,954.77
2016-10-08T07:46:27.186Z,954.77
2016-10-08T07:47:27.204Z,954.82
2016-10-08T07:48:27.225Z,954.76
2016-10-08T07:49:27.244Z,954.8
2016-10-08T07:50:27.262Z,954.86
2016-10-08T07:51:27.303Z,954.83
2016-10-08T07:52:27.301Z,954.82
2016-10-08T07:53:27.321Z,954.89
2016-10-08T07:54:27.339Z,954.85
2016-10-08T07:55:27.361Z,954.84
2016-10-08T07:56:27.380Z,954.85
2016-10-08T07:57:27.398Z,954.85
2016-10-08T07:58:27.427Z,954.84
2016-10-08T07:59:27.439Z,954.84
2016-10-08T08:00:27.459Z,954.85
2016-10-08T08:01:27.478Z,954.86
2016-10-08T08:02:27.498Z,954.9
2016-10-08T08:03:27.518Z,954.92
2016-10-08T08:04:27.536Z,954.94
2016-10-08T08:05:27.557Z,954.95
2016-10-08T08:06:27.583Z,954.95
2016-10-08T08:07:27.594Z,955.01
2016-10-08T08:08:27.614Z,955.04
2016-10-08T08:09:27.635Z,955.02
2016-10-08T08:10:27.655Z,955.08
2016-10-08T08:11:27.674Z,955.01
2016-10-08T08:12:27.692Z,955.03
2016-10-08T08:13:27.719Z,955.04
2016-10-08T08:14:27.733Z,955.05
2016-10-08T08:15:27.751Z,955.03
2016-10-08T08:16:27.771Z,955.03
2016-10-08T08:17:27.791Z,955.04
2016-10-08T08:18:27.811Z,955.04
2016-10-08T08:19:27.829Z,955.03
2016-10-08T08:20:27.850Z,955.03
2016-10-08T08:21:27.871Z,955.01
2016-10-08T08:22:27.888Z,955.06
2016-10-08T08:23:27.908Z,955.06
2016-10-08T08:24:27.927Z,955.03
2016-10-08T08:25:27.948Z,955.01
2016-10-08T08:26:27.967Z,954.97
2016-10-08T08:27:27.985Z,955.04
2016-10-08T08:28:28.004Z,955.07
2016-10-08T08:29:28.023Z,955.05
2016-10-08T08:30:28.044Z,955.04
2016-10-08T08:31:28.063Z,955.05
2016-10-08T08:32:28.084Z,955.06
2016-10-08T08:33:28.104Z,955.06
2016-10-08T08:34:28.122Z,955.04
2016-10-08T08:35:28.145Z,955.08
2016-10-08T08:36:28.162Z,955.07
2016-10-08T08:37:28.180Z,955.09
2016-10-08T08:38:28.201Z,955.07
2016-10-08T08:39:28.221Z,955.08
2016-10-08T08:40:28.238Z,955.12
2016-10-08T08:41:28.259Z,955.1
2016-10-08T08:42:28.279Z,955.11
2016-10-08T08:43:28.298Z,955.13
2016-10-08T08:44:28.318Z,955.12
2016-10-08T08:45:28.338Z,955.09
2016-10-08T08:46:28.357Z,955.15
2016-10-08T08:47:28.378Z,955.13
2016-10-08T08:48:28.395Z,955.14
2016-10-08T08:49:28.416Z,955.16
2016-10-08T08:50:28.436Z,955.16
2016-10-08T08:51:28.475Z,955.1
2016-10-08T08:52:28.476Z,955.17
2016-10-08T08:53:28.495Z,955.14
2016-10-08T08:54:28.515Z,955.12
2016-10-08T08:55:28.534Z,955.1
2016-10-08T08:56:28.555Z,955.16
2016-10-08T08:57:28.574Z,955.18
2016-10-08T08:58:28.594Z,955.21
2016-10-08T08:59:28.633Z,955.19
2016-10-08T09:00:28.634Z,955.18
2016-10-08T09:01:28.654Z,955.16
2016-10-08T09:02:28.672Z,955.2
2016-10-08T09:03:28.695Z,955.21
2016-10-08T09:04:28.714Z,955.18
2016-10-08T09:05:28.733Z,955.19
2016-10-08T09:06:28.757Z,955.18
2016-10-08T09:07:28.772Z,955.16
2016-10-08T09:08:28.795Z,955.17
2016-10-08T09:09:28.813Z,955.14
2016-10-08T09:10:28.831Z,955.18
2016-10-08T09:11:28.853Z,955.19
2016-10-08T09:12:28.879Z,955.2
2016-10-08T09:13:28.891Z,955.2
2016-10-08T09:14:28.914Z,955.2
2016-10-08T09:15:28.933Z,955.18
2016-10-08T09:16:28.954Z,955.22
2016-10-08T09:17:28.972Z,955.22
2016-10-08T09:18:28.993Z,955.24
2016-10-08T09:19:29.014Z,955.26
2016-10-08T09:20:29.033Z,955.27
2016-10-08T09:21:29.054Z,955.26
2016-10-08T09:22:29.075Z,955.27
2016-10-08T09:23:29.095Z,955.27
2016-10-08T09:24:29.133Z,955.32
2016-10-08T09:25:29.140Z,955.29
2016-10-08T09:26:29.156Z,955.25
2016-10-08T09:27:29.177Z,955.27
2016-10-08T09:28:29.197Z,955.23
2016-10-08T09:29:29.218Z,955.25
2016-10-08T09:30:29.239Z,955.21
2016-10-08T09:31:29.258Z,955.24
2016-10-08T09:32:29.280Z,955.23
2016-10-08T09:33:29.299Z,955.25
2016-10-08T09:34:29.322Z,955.25
2016-10-08T09:35:29.343Z,955.26
2016-10-08T09:36:29.362Z,955.27
2016-10-08T09:37:29.383Z,955.25
2016-10-08T09:38:29.404Z,955.31
2016-10-08T09:39:29.423Z,955.22
2016-10-08T09:40:29.445Z,955.22
2016-10-08T09:41:29.466Z,955.23
2016-10-08T09:42:29.486Z,955.22
2016-10-08T09:43:29.507Z,955.29
2016-10-08T09:44:29.537Z,955.28
2016-10-08T09:45:29.547Z,955.32
2016-10-08T09:46:29.568Z,955.3
2016-10-08T09:47:29.589Z,955.34
2016-10-08T09:48:29.609Z,955.4
2016-10-08T09:49:29.631Z,955.37
2016-10-08T09:50:29.650Z,955.37
2016-10-08T09:51:29.672Z,955.39
2016-10-08T09:52:29.699Z,955.38
2016-10-08T09:53:29.712Z,955.41
2016-10-08T09:54:29.735Z,955.41
2016-10-08T09:55:29.755Z,955.44
2016-10-08T09:56:29.775Z,955.46
2016-10-08T09:57:29.796Z,955.44
2016-10-08T09:58:29.818Z,955.46
2016-10-08T09:59:29.841Z,955.45
2016-10-08T10:00:29.859Z,955.48
2016-10-08T10:01:29.879Z,955.46
2016-10-08T10:02:29.902Z,955.49
2016-10-08T10:03:29.921Z,955.49
2016-10-08T10:04:29.940Z,955.44
2016-10-08T10:05:29.963Z,955.44
2016-10-08T10:06:29.984Z,955.47
2016-10-08T10:07:30.003Z,955.47
2016-10-08T10:08:30.025Z,955.51
2016-10-08T10:09:30.046Z,955.49
2016-10-08T10:10:30.066Z,955.5
2016-10-08T10:11:30.090Z,955.48
2016-10-08T10:12:30.108Z,955.5
2016-10-08T10:13:30.129Z,955.56
2016-10-08T10:15:30.171Z,955.54
2016-10-08T10:16:30.192Z,955.5
2016-10-08T10:17:30.215Z,955.51
2016-10-08T10:18:30.234Z,955.55
2016-10-08T10:19:30.257Z,955.52
2016-10-08T10:20:30.277Z,955.53
2016-10-08T10:21:30.298Z,955.53
2016-10-08T10:22:30.324Z,955.57
2016-10-08T10:23:30.340Z,955.57
2016-10-08T10:24:30.361Z,955.55
2016-10-08T10:25:30.382Z,955.53
2016-10-08T10:26:30.403Z,955.54
2016-10-08T10:27:30.425Z,955.58
2016-10-08T10:28:30.445Z,955.59
2016-10-08T10:29:30.467Z,955.56
2016-10-08T10:30:30.488Z,955.56
2016-10-08T10:31:30.511Z,955.56
2016-10-08T10:32:30.531Z,955.56
2016-10-08T10:33:30.551Z,955.58
2016-10-08T10:34:30.575Z,955.59
2016-10-08T10:35:30.596Z,955.54
2016-10-08T10:36:30.618Z,955.58
2016-10-08T10:37:30.637Z,955.59
2016-10-08T10:38:30.660Z,955.58
2016-10-08T10:39:30.681Z,955.58
2016-10-08T10:40:30.703Z,955.59
2016-10-08T10:41:30.723Z,955.6
2016-10-08T10:42:30.744Z,955.64
2016-10-08T10:43:30.765Z,955.64
2016-10-08T10:44:30.787Z,955.63
2016-10-08T10:45:30.934Z,955.61
2016-10-08T10:46:30.828Z,955.61
2016-10-08T10:47:30.850Z,955.62
2016-10-08T10:48:30.871Z,955.61
2016-10-08T10:49:30.892Z,955.64
2016-10-08T10:50:30.913Z,955.64
2016-10-08T10:51:30.934Z,955.64
2016-10-08T10:52:30.955Z,955.63
2016-10-08T10:53:30.984Z,955.58
2016-10-08T10:54:30.998Z,955.57
2016-10-08T10:55:31.038Z,955.59
2016-10-08T10:56:31.041Z,955.6
2016-10-08T10:57:31.060Z,955.52
2016-10-08T10:58:31.083Z,955.57
2016-10-08T10:59:31.103Z,955.56
2016-10-08T11:00:31.126Z,955.57
2016-10-08T11:01:31.146Z,955.56
2016-10-08T11:02:31.167Z,955.61
2016-10-08T11:03:31.187Z,955.53
2016-10-08T11:04:31.210Z,955.58
2016-10-08T11:05:31.232Z,955.56
2016-10-08T11:06:31.252Z,955.6
2016-10-08T11:07:31.274Z,955.59
2016-10-08T11:08:31.293Z,955.62
2016-10-08T11:09:31.315Z,955.6
2016-10-08T11:10:31.336Z,955.63
2016-10-08T11:11:31.359Z,955.61
2016-10-08T11:12:31.379Z,955.54
2016-10-08T11:13:31.400Z,955.61
2016-10-08T11:14:31.422Z,955.61
2016-10-08T11:15:31.443Z,955.61
2016-10-08T11:16:31.482Z,955.61
2016-10-08T11:17:31.484Z,955.67
2016-10-08T11:18:31.505Z,955.61
2016-10-08T11:19:31.527Z,955.62
2016-10-08T11:20:31.549Z,955.61
2016-10-08T11:21:31.569Z,955.59
2016-10-08T11:22:31.590Z,955.61
2016-10-08T11:23:31.614Z,955.65
2016-10-08T11:24:31.635Z,955.61
2016-10-08T11:25:31.655Z,955.6
2016-10-08T11:26:31.677Z,955.59
2016-10-08T11:27:31.700Z,955.6
2016-10-08T11:28:31.719Z,955.63
2016-10-08T11:29:31.741Z,955.61
2016-10-08T11:30:31.762Z,955.58
2016-10-08T11:31:31.786Z,955.58
2016-10-08T11:32:31.853Z,955.58
2016-10-08T11:33:31.825Z,955.64
2016-10-08T11:34:31.847Z,955.62
2016-10-08T11:35:31.870Z,955.6
2016-10-08T11:36:31.889Z,955.63
2016-10-08T11:37:31.911Z,955.61
2016-10-08T11:38:31.932Z,955.64
2016-10-08T11:39:31.954Z,955.61
2016-10-08T11:40:31.974Z,955.65
2016-10-08T11:41:31.995Z,955.62
2016-10-08T11:42:32.017Z,955.61
2016-10-08T11:43:32.037Z,955.64
2016-10-08T11:44:32.060Z,955.65
2016-10-08T11:45:32.080Z,955.63
2016-10-08T11:46:32.104Z,955.62
2016-10-08T11:47:32.122Z,955.65
2016-10-08T11:48:32.144Z,955.67
2016-10-08T11:49:32.164Z,955.66
2016-10-08T11:50:32.190Z,955.66
2016-10-08T11:51:32.206Z,955.66
2016-10-08T11:52:32.226Z,955.67
2016-10-08T11:53:32.248Z,955.71
2016-10-08T11:54:32.272Z,955.72
2016-10-08T11:55:32.290Z,955.72
2016-10-08T11:56:32.312Z,955.73
2016-10-08T11:57:32.333Z,955.68
2016-10-08T11:58:32.351Z,955.77
2016-10-08T11:59:32.374Z,955.73
2016-10-08T12:00:32.394Z,955.78
2016-10-08T12:01:32.415Z,955.73
2016-10-08T12:02:32.438Z,955.73
2016-10-08T12:03:32.457Z,955.71
2016-10-08T12:04:32.479Z,955.79
2016-10-08T12:05:32.499Z,955.73
2016-10-08T12:06:32.519Z,955.72
2016-10-08T12:07:32.540Z,955.81
2016-10-08T12:08:32.562Z,955.76
2016-10-08T12:09:32.600Z,955.78
2016-10-08T12:10:32.604Z,955.76
2016-10-08T12:11:32.625Z,955.73
2016-10-08T12:12:32.645Z,955.75
2016-10-08T12:13:32.667Z,955.75
2016-10-08T12:14:32.688Z,955.77
2016-10-08T12:15:32.709Z,955.76
2016-10-08T12:16:32.728Z,955.71
2016-10-08T12:17:32.756Z,955.74
2016-10-08T12:18:32.772Z,955.74
2016-10-08T12:19:32.793Z,955.74
2016-10-08T12:20:32.813Z,955.74
2016-10-08T12:21:32.834Z,955.79
2016-10-08T12:22:32.855Z,955.77
2016-10-08T12:23:32.875Z,955.79
2016-10-08T12:24:32.896Z,955.77
2016-10-08T12:25:32.918Z,955.8
2016-10-08T12:26:32.941Z,955.82
2016-10-08T12:27:32.958Z,955.77
2016-10-08T12:28:32.980Z,955.78
2016-10-08T12:29:33.002Z,955.81
2016-10-08T12:30:33.021Z,955.8
2016-10-08T12:31:33.043Z,955.77